Time;durP1;ratioP1;P1;durP2;ratioP2;P2;SDS_P1;SDS_P2;PMS_P1;PMS_P2;Temp;Humidity;BMP_temperature;BMP_pressure;BME280_temperature;BME280_humidity;BME280_pressure;Samples;Min_cycle;Max_cycle;Signal;HPM_P1;HPM_P2
2022/09/16 00:00:48;;;;;;;0.57;0.57;;;;;;;7.21;100.00;97832.81;4934879;29;20058;-86
2022/09/16 00:03:16;;;;;;;0.50;0.50;;;;;;;7.18;100.00;97838.66;4934741;29;20059;-88
2022/09/16 00:05:45;;;;;;;0.60;0.60;;;;;;;7.18;100.00;97833.31;4935616;29;20047;-88
2022/09/16 00:08:13;;;;;;;0.60;0.60;;;;;;;7.19;100.00;97842.16;4933533;29;20059;-89
2022/09/16 00:10:42;;;;;;;0.60;0.60;;;;;;;7.23;100.00;97836.06;4934506;29;20050;-88
2022/09/16 00:13:11;;;;;;;0.60;0.60;;;;;;;7.34;100.00;97834.28;4934314;29;20053;-89
2022/09/16 00:15:42;;;;;;;0.50;0.50;;;;;;;7.46;100.00;97839.50;4933506;29;20147;-88
2022/09/16 00:18:10;;;;;;;0.60;0.60;;;;;;;7.46;100.00;97843.00;4934262;29;20602;-89
2022/09/16 00:20:45;;;;;;;0.60;0.60;;;;;;;7.44;100.00;97844.31;4933254;29;20056;-89
2022/09/16 00:23:12;;;;;;;0.60;0.60;;;;;;;7.45;100.00;97849.44;4934908;29;20500;-89
2022/09/16 00:25:40;;;;;;;0.60;0.60;;;;;;;7.49;100.00;97839.00;4933831;29;20482;-88
2022/09/16 00:28:07;;;;;;;0.60;0.60;;;;;;;7.54;100.00;97844.44;4934951;29;20150;-87
2022/09/16 00:30:34;;;;;;;0.60;0.60;;;;;;;7.59;100.00;97845.28;4934105;29;20151;-87
2022/09/16 00:33:02;;;;;;;0.60;0.60;;;;;;;7.63;100.00;97839.44;4933671;29;20392;-88
2022/09/16 00:35:28;;;;;;;0.60;0.60;;;;;;;7.67;100.00;97837.84;4933649;29;20055;-88
2022/09/16 00:37:56;;;;;;;0.60;0.60;;;;;;;7.75;100.00;97840.88;4917308;29;20059;-87
2022/09/16 00:40:22;;;;;;;0.50;0.50;;;;;;;7.86;100.00;97838.28;4934391;29;20054;-87
2022/09/16 00:42:50;;;;;;;0.60;0.60;;;;;;;7.94;100.00;97835.94;4934879;29;20052;-89
2022/09/16 00:45:22;;;;;;;0.60;0.60;;;;;;;7.98;100.00;97830.88;4935501;29;20051;-88
2022/09/16 00:47:53;;;;;;;0.60;0.60;;;;;;;8.05;100.00;97836.81;4933844;29;20060;-88
2022/09/16 00:50:35;;;;;;;0.60;0.60;;;;;;;8.09;100.00;97839.84;4933001;29;20156;-89
2022/09/16 00:53:02;;;;;;;0.60;0.60;;;;;;;7.97;100.00;97834.63;4934071;29;20496;-89
2022/09/16 00:55:31;;;;;;;0.50;0.50;;;;;;;7.86;100.00;97828.34;4934009;29;20058;-88
2022/09/16 00:58:10;;;;;;;0.50;0.50;;;;;;;7.80;100.00;97827.50;4934641;29;20065;-87
2022/09/16 01:00:37;;;;;;;0.52;0.52;;;;;;;7.72;100.00;97825.28;4926355;29;20071;-88
2022/09/16 01:03:05;;;;;;;0.60;0.60;;;;;;;7.67;100.00;97822.56;4913911;29;20051;-88
2022/09/16 01:05:32;;;;;;;0.60;0.60;;;;;;;7.69;100.00;97822.28;4913505;29;20468;-89
2022/09/16 01:08:00;;;;;;;0.50;0.50;;;;;;;7.74;100.00;97823.13;4914102;29;20467;-88
2022/09/16 01:10:27;;;;;;;0.50;0.50;;;;;;;7.81;100.00;97825.63;4915323;29;20492;-87
2022/09/16 01:13:07;;;;;;;0.60;0.60;;;;;;;7.91;100.00;97817.66;4917365;29;20143;-88
2022/09/16 01:15:53;;;;;;;0.50;0.50;;;;;;;8.02;100.00;97815.84;4914866;29;20082;-89
2022/09/16 01:18:20;;;;;;;0.60;0.60;;;;;;;8.04;100.00;97819.09;4916992;29;20067;-88
2022/09/16 01:21:00;;;;;;;0.60;0.60;;;;;;;8.02;100.00;97813.97;4915567;29;20040;-87
2022/09/16 01:23:39;;;;;;;0.60;0.60;;;;;;;8.00;100.00;97812.59;4929212;29;20040;-88
2022/09/16 01:26:31;;;;;;;0.50;0.50;;;;;;;8.12;100.00;97807.88;4924338;29;20081;-89
2022/09/16 01:29:32;;;;;;;0.60;0.60;;;;;;;8.22;100.00;97809.81;4914986;29;20151;-87
2022/09/16 01:32:32;;;;;;;0.50;0.50;;;;;;;8.31;100.00;97812.84;4918259;29;20150;-88
2022/09/16 01:35:23;;;;;;;0.60;0.60;;;;;;;8.36;100.00;97815.56;4859708;29;20055;-89
2022/09/16 01:38:14;;;;;;;0.50;0.50;;;;;;;8.39;99.67;97812.38;4859867;29;20448;-87
2022/09/16 01:40:58;;;;;;;0.50;0.50;;;;;;;8.44;99.28;97812.41;4844558;29;20053;-88
2022/09/16 01:43:43;;;;;;;0.60;0.60;;;;;;;8.49;98.86;97817.84;4844454;29;20053;-89
2022/09/16 01:46:55;;;;;;;0.60;0.60;;;;;;;8.50;98.53;97819.44;4860008;29;20098;-89
2022/09/16 01:49:48;;;;;;;0.60;0.60;;;;;;;8.48;98.52;97810.00;4858850;29;20457;-88
2022/09/16 01:52:29;;;;;;;0.50;0.50;;;;;;;8.45;98.46;97803.28;4858477;29;20064;-88
2022/09/16 01:55:09;;;;;;;0.50;0.50;;;;;;;8.41;98.57;97815.63;4859399;29;20049;-88
2022/09/16 01:57:45;;;;;;;0.50;0.50;;;;;;;8.39;98.58;97805.13;4843984;29;20052;-89
2022/09/16 02:00:13;;;;;;;0.60;0.60;;;;;;;8.37;98.78;97798.38;4844421;29;20053;-88
2022/09/16 02:02:51;;;;;;;0.60;0.60;;;;;;;8.36;98.86;97802.94;4844217;29;20147;-88
2022/09/16 02:05:24;;;;;;;0.50;0.50;;;;;;;8.34;98.96;97801.56;4844703;29;20057;-88
2022/09/16 02:07:56;;;;;;;0.60;0.60;;;;;;;8.32;99.01;97801.03;4829967;29;20128;-89
2022/09/16 02:10:30;;;;;;;0.50;0.50;;;;;;;8.33;98.73;97797.25;4829251;29;20494;-88
2022/09/16 02:13:02;;;;;;;0.60;0.60;;;;;;;8.35;98.76;97797.81;4916858;29;20159;-88
2022/09/16 02:15:32;;;;;;;0.60;0.60;;;;;;;8.35;98.73;97801.31;4922928;29;20091;-89
2022/09/16 02:18:03;;;;;;;0.60;0.60;;;;;;;8.37;98.72;97801.84;4918122;29;20052;-89
2022/09/16 02:20:31;;;;;;;0.60;0.60;;;;;;;8.38;98.61;97794.59;4917847;29;20056;-87
2022/09/16 02:23:13;;;;;;;0.50;0.50;;;;;;;8.40;98.44;97793.28;4917404;29;20058;-88
2022/09/16 02:25:44;;;;;;;0.50;0.50;;;;;;;8.41;98.39;97802.19;4916416;29;20431;-88
2022/09/16 02:28:15;;;;;;;0.50;0.50;;;;;;;8.43;98.40;97791.97;4901889;29;20432;-88
2022/09/16 02:30:46;;;;;;;0.60;0.60;;;;;;;8.44;98.28;97793.59;4916505;29;20081;-89
2022/09/16 02:33:14;;;;;;;0.57;0.57;;;;;;;8.43;98.00;97794.66;4917394;29;20059;-88
2022/09/16 02:35:44;;;;;;;0.60;0.60;;;;;;;8.42;97.80;97790.34;4918737;29;20095;-87
2022/09/16 02:38:19;;;;;;;0.50;0.50;;;;;;;8.46;97.92;97786.09;4916551;29;20456;-88
2022/09/16 02:40:51;;;;;;;0.50;0.50;;;;;;;8.45;97.70;97789.84;4917328;29;20051;-89
2022/09/16 02:43:18;;;;;;;0.50;0.50;;;;;;;8.45;97.77;97787.16;4915602;29;20099;-88
2022/09/16 02:45:51;;;;;;;0.60;0.60;;;;;;;8.45;97.65;97781.75;4920300;29;20105;-87
2022/09/16 02:48:24;;;;;;;0.50;0.50;;;;;;;8.48;97.86;97780.44;4934845;29;20055;-88
2022/09/16 02:50:56;;;;;;;0.50;0.50;;;;;;;8.50;97.67;97775.63;4935989;29;20115;-89
2022/09/16 02:53:41;;;;;;;0.55;0.55;;;;;;;8.51;97.34;97782.59;4935656;29;20052;-89
2022/09/16 02:56:30;;;;;;;0.60;0.60;;;;;;;8.48;97.40;97788.50;4936341;29;20051;-89
2022/09/16 02:58:57;;;;;;;0.60;0.60;;;;;;;8.43;97.23;97781.22;4935467;29;20047;-89
2022/09/16 03:01:24;;;;;;;0.60;0.60;;;;;;;8.40;97.27;97785.22;4936992;29;20059;-89
2022/09/16 03:03:54;;;;;;;0.60;0.60;;;;;;;8.43;97.32;97778.53;4943756;29;20051;-88
2022/09/16 03:06:24;;;;;;;0.50;0.50;;;;;;;8.44;97.18;97785.53;4940255;29;20051;-88
2022/09/16 03:08:53;;;;;;;0.50;0.50;;;;;;;8.42;97.19;97776.91;4939568;29;20055;-90
2022/09/16 03:11:24;;;;;;;0.50;0.50;;;;;;;8.46;97.52;97788.78;4935387;29;20051;-90
2022/09/16 03:14:17;;;;;;;0.50;0.50;;;;;;;8.51;97.44;97778.06;4934305;29;20428;-89
2022/09/16 03:17:11;;;;;;;0.50;0.50;;;;;;;8.59;97.20;97776.75;4935512;29;20064;-89
2022/09/16 03:19:38;;;;;;;0.60;0.60;;;;;;;8.63;96.99;97773.28;4935711;29;20071;-89
2022/09/16 03:22:14;;;;;;;0.57;0.57;;;;;;;8.69;96.57;97774.09;4935624;29;20052;-88
2022/09/16 03:24:55;;;;;;;0.60;0.60;;;;;;;8.70;96.48;97777.59;4933972;29;20566;-88
2022/09/16 03:27:49;;;;;;;0.60;0.60;;;;;;;8.71;96.33;97774.66;4936175;29;20059;-88
2022/09/16 03:30:16;;;;;;;0.60;0.60;;;;;;;8.74;96.49;97767.94;4952279;29;20052;-88
2022/09/16 03:32:49;;;;;;;0.60;0.60;;;;;;;8.81;96.45;97768.50;4939508;29;20060;-89
2022/09/16 03:35:25;;;;;;;0.50;0.50;;;;;;;8.93;96.12;97761.00;4936047;29;20057;-89
2022/09/16 03:37:54;;;;;;;0.50;0.50;;;;;;;8.97;95.70;97767.50;4935937;29;20079;-87
2022/09/16 03:40:22;;;;;;;0.60;0.60;;;;;;;9.00;95.39;97761.56;4934241;29;20058;-88
2022/09/16 03:42:49;;;;;;;0.50;0.50;;;;;;;9.03;95.23;97762.91;4934944;29;20044;-89
2022/09/16 03:45:19;;;;;;;0.50;0.50;;;;;;;9.00;95.20;97760.75;4934854;29;20048;-89
2022/09/16 03:47:48;;;;;;;0.60;0.60;;;;;;;9.04;94.90;97772.59;4934536;29;20047;-87
2022/09/16 03:50:16;;;;;;;0.50;0.50;;;;;;;9.06;94.49;97787.44;4933684;29;20048;-86
2022/09/16 03:52:43;;;;;;;0.50;0.50;;;;;;;9.10;94.58;97788.50;4935880;29;20054;-87
2022/09/16 03:55:15;;;;;;;0.60;0.60;;;;;;;9.08;94.40;97779.88;4935733;29;20047;-88
2022/09/16 03:57:49;;;;;;;0.60;0.60;;;;;;;9.10;94.38;97793.91;4939849;29;20071;-89
2022/09/16 04:00:16;;;;;;;0.60;0.60;;;;;;;9.11;94.03;97792.00;4905050;29;20143;-89
2022/09/16 04:02:43;;;;;;;0.55;0.55;;;;;;;9.11;94.15;97792.00;4934747;29;20047;-89
2022/09/16 04:05:10;;;;;;;0.60;0.60;;;;;;;9.13;93.82;97791.75;4935224;29;20103;-89
2022/09/16 04:07:37;;;;;;;0.50;0.50;;;;;;;9.18;93.64;97797.16;4935418;29;20480;-90
2022/09/16 04:10:05;;;;;;;0.55;0.55;;;;;;;9.23;93.60;97794.47;4935110;29;20051;-89
2022/09/16 04:12:32;;;;;;;0.50;0.50;;;;;;;9.27;93.59;97793.69;4933019;29;20047;-89
2022/09/16 04:14:59;;;;;;;0.50;0.50;;;;;;;9.30;93.46;97786.97;4934227;29;20150;-89
2022/09/16 04:17:31;;;;;;;0.50;0.50;;;;;;;9.30;93.26;97790.47;4932989;29;20050;-89
2022/09/16 04:19:58;;;;;;;0.50;0.50;;;;;;;9.29;93.37;97786.16;4934095;29;20043;-89
2022/09/16 04:22:29;;;;;;;0.50;0.50;;;;;;;9.28;93.49;97789.09;4931311;29;20051;-90
2022/09/16 04:24:56;;;;;;;0.50;0.50;;;;;;;9.32;93.71;97796.38;4922436;29;20507;-88
2022/09/16 04:27:24;;;;;;;0.50;0.50;;;;;;;9.36;93.46;97796.66;4926710;29;20048;-88
2022/09/16 04:29:50;;;;;;;0.50;0.50;;;;;;;9.41;93.47;97791.28;4933663;29;20150;-89
2022/09/16 04:32:17;;;;;;;0.50;0.50;;;;;;;9.41;93.30;97783.19;4934679;29;20422;-89
2022/09/16 04:34:44;;;;;;;0.50;0.50;;;;;;;9.44;93.12;97777.28;4936183;29;20059;-89
2022/09/16 04:37:11;;;;;;;0.50;0.50;;;;;;;9.48;93.35;97777.56;4937882;29;20062;-89
2022/09/16 04:39:38;;;;;;;0.60;0.60;;;;;;;9.54;93.62;97771.94;4937006;29;20083;-89
2022/09/16 04:42:06;;;;;;;0.60;0.60;;;;;;;9.59;93.56;97779.19;4929782;29;20472;-88
2022/09/16 04:44:33;;;;;;;0.60;0.60;;;;;;;9.62;93.18;97783.22;4936139;29;20059;-86
2022/09/16 04:47:00;;;;;;;0.60;0.60;;;;;;;9.61;93.17;97778.94;4934217;29;20182;-87
2022/09/16 04:49:27;;;;;;;0.57;0.57;;;;;;;9.67;93.16;97775.16;4932551;29;20054;-88
2022/09/16 04:51:57;;;;;;;0.60;0.60;;;;;;;9.70;92.82;97783.53;4925812;29;20115;-88
2022/09/16 04:54:24;;;;;;;0.50;0.50;;;;;;;9.68;93.05;97782.97;4933493;29;20091;-89
2022/09/16 04:56:51;;;;;;;0.50;0.50;;;;;;;9.69;93.19;97773.00;4933965;29;20051;-89
2022/09/16 04:59:18;;;;;;;0.60;0.60;;;;;;;9.71;93.13;97781.63;4927128;29;20075;-88
2022/09/16 05:01:45;;;;;;;0.50;0.50;;;;;;;9.70;93.06;97774.63;4918867;29;20079;-86
2022/09/16 05:04:13;;;;;;;0.50;0.50;;;;;;;9.70;93.02;97775.44;4931907;29;20044;-88
2022/09/16 05:06:40;;;;;;;0.50;0.50;;;;;;;9.72;93.12;97772.47;4934053;29;20126;-90
2022/09/16 05:09:09;;;;;;;0.50;0.50;;;;;;;9.74;93.02;97768.41;4938424;29;20048;-88
2022/09/16 05:11:37;;;;;;;0.57;0.57;;;;;;;9.73;93.00;97774.09;4933690;29;20416;-85
2022/09/16 05:14:09;;;;;;;0.50;0.50;;;;;;;9.70;93.05;97772.75;4932839;29;20388;-84
2022/09/16 05:16:36;;;;;;;0.60;0.60;;;;;;;9.74;93.10;97764.91;4916609;29;20052;-86
2022/09/16 05:19:03;;;;;;;0.50;0.50;;;;;;;9.73;93.09;97761.44;4934063;29;20534;-86
2022/09/16 05:21:35;;;;;;;0.60;0.60;;;;;;;9.75;93.08;97761.16;4931452;29;20181;-87
2022/09/16 05:24:06;;;;;;;0.52;0.52;;;;;;;9.75;92.94;97761.16;4924594;29;20070;-87
2022/09/16 05:26:34;;;;;;;0.50;0.50;;;;;;;9.80;92.87;97753.09;4929072;29;20098;-86
2022/09/16 05:29:04;;;;;;;0.60;0.60;;;;;;;9.85;92.92;97747.69;4926803;29;20144;-85
2022/09/16 05:31:36;;;;;;;0.60;0.60;;;;;;;9.94;92.72;97746.06;4929274;29;20119;-84
2022/09/16 05:34:07;;;;;;;0.57;0.57;;;;;;;10.03;92.38;97745.53;4931525;29;20082;-85
2022/09/16 05:36:37;;;;;;;0.50;0.50;;;;;;;10.09;92.14;97744.44;4939616;29;20051;-83
2022/09/16 05:39:05;;;;;;;0.50;0.50;;;;;;;10.14;91.97;97742.53;4932199;29;20068;-84
2022/09/16 05:41:57;;;;;;;;;;;;;;;10.22;91.66;97746.56;4937571;29;20103;-85
2022/09/16 05:44:25;;;;;;;0.50;0.50;;;;;;;10.29;91.35;97744.41;4935774;29;19927;-83
2022/09/16 05:46:52;;;;;;;0.50;0.50;;;;;;;10.38;90.97;97742.78;4937639;29;20071;-86
2022/09/16 05:49:19;;;;;;;0.50;0.50;;;;;;;10.46;90.87;97744.13;4590846;29;10000132;-87
2022/09/16 05:51:47;;;;;;;0.50;0.50;;;;;;;10.45;90.63;97745.19;4930917;29;20055;-85
2022/09/16 05:54:17;;;;;;;0.50;0.50;;;;;;;10.45;90.58;97749.78;4932766;29;20055;-86
2022/09/16 05:56:45;;;;;;;0.50;0.50;;;;;;;10.55;90.82;97745.16;4930629;29;20715;-85
2022/09/16 05:59:13;;;;;;;0.50;0.50;;;;;;;10.63;90.45;97743.78;4934056;29;20063;-84
2022/09/16 06:01:40;;;;;;;0.50;0.50;;;;;;;10.67;90.22;97736.75;4930349;29;20546;-83
2022/09/16 06:04:10;;;;;;;0.50;0.50;;;;;;;10.77;90.11;97741.31;4925562;29;20609;-84
2022/09/16 06:06:42;;;;;;;0.60;0.60;;;;;;;10.90;89.89;97729.91;4933703;29;20060;-83
2022/09/16 06:09:16;;;;;;;0.50;0.50;;;;;;;10.98;89.66;97733.91;4928574;29;20065;-83
2022/09/16 06:11:46;;;;;;;0.60;0.60;;;;;;;10.99;89.46;97725.53;4923148;29;20056;-84
2022/09/16 06:14:14;;;;;;;0.50;0.50;;;;;;;10.96;89.36;97725.28;4923468;29;20071;-82
2022/09/16 06:16:41;;;;;;;0.50;0.50;;;;;;;10.89;89.57;97725.59;4912523;29;20092;-86
2022/09/16 06:19:18;;;;;;;0.60;0.60;;;;;;;10.98;89.75;97725.81;4914762;29;20110;-82
2022/09/16 06:21:45;;;;;;;0.50;0.50;;;;;;;11.05;89.22;97724.41;4922706;29;20109;-83
2022/09/16 06:24:14;;;;;;;0.60;0.60;;;;;;;11.13;88.88;97725.72;4924810;29;20499;-84
2022/09/16 06:26:42;;;;;;;0.60;0.60;;;;;;;11.21;88.58;97722.44;4917179;29;20051;-83
2022/09/16 06:29:10;;;;;;;0.60;0.60;;;;;;;11.35;88.25;97716.41;4915360;29;20288;-82
2022/09/16 06:31:37;;;;;;;0.60;0.60;;;;;;;11.57;87.88;97722.22;4913878;29;20054;-83
2022/09/16 06:34:05;;;;;;;0.60;0.60;;;;;;;11.78;87.33;97719.34;4914225;29;20056;-85
2022/09/16 06:36:35;;;;;;;0.60;0.60;;;;;;;12.09;86.44;97714.47;4921641;29;20511;-85
2022/09/16 06:39:05;;;;;;;0.60;0.60;;;;;;;12.31;85.28;97719.41;4912258;29;20071;-83
2022/09/16 06:41:33;;;;;;;0.60;0.60;;;;;;;12.46;84.50;97713.81;4929794;29;20047;-84
2022/09/16 06:44:00;;;;;;;0.50;0.50;;;;;;;12.48;83.82;97710.81;4929905;29;20047;-86
2022/09/16 06:46:28;;;;;;;0.50;0.50;;;;;;;12.48;83.86;97714.34;4930395;29;20126;-84
2022/09/16 06:48:57;;;;;;;0.60;0.60;;;;;;;12.61;83.72;97710.13;4910418;29;20587;-85
2022/09/16 06:51:30;;;;;;;;;;;;;;;12.76;83.46;97706.41;4928927;29;20082;-82
2022/09/16 06:54:05;;;;;;;0.55;0.55;;;;;;;12.77;82.95;97700.72;4929933;29;19927;-81
2022/09/16 06:56:34;;;;;;;0.50;0.50;;;;;;;12.87;82.88;97696.28;4927432;29;20418;-84
2022/09/16 06:59:02;;;;;;;0.50;0.50;;;;;;;13.10;82.08;97702.72;4931037;29;20143;-83
2022/09/16 07:01:30;;;;;;;0.60;0.60;;;;;;;13.29;81.65;97695.41;4924186;29;20150;-83
2022/09/16 07:03:58;;;;;;;0.50;0.50;;;;;;;13.26;80.64;97697.88;4930225;29;20047;-84
2022/09/16 07:06:28;;;;;;;0.60;0.60;;;;;;;13.37;80.28;97696.69;4929295;29;20099;-83
2022/09/16 07:09:16;;;;;;;0.60;0.60;;;;;;;13.37;80.04;97694.78;4911532;29;20047;-83
2022/09/16 07:11:43;;;;;;;0.57;0.57;;;;;;;13.53;79.80;97697.25;4930017;29;20062;-83
2022/09/16 07:14:11;;;;;;;0.65;0.65;;;;;;;13.77;78.89;97706.03;4930362;29;20342;-83
2022/09/16 07:16:38;;;;;;;0.50;0.50;;;;;;;13.99;78.23;97699.19;4929982;29;20095;-84
2022/09/16 07:19:05;;;;;;;0.50;0.50;;;;;;;14.16;77.40;97701.31;4930636;29;20058;-85
2022/09/16 07:21:33;;;;;;;0.60;0.60;;;;;;;14.23;77.02;97694.41;4930341;29;20056;-84
2022/09/16 07:24:01;;;;;;;0.50;0.50;;;;;;;14.52;76.75;97694.09;4929855;29;20090;-84
2022/09/16 07:26:31;;;;;;;0.50;0.50;;;;;;;14.70;75.58;97689.69;4928790;29;20514;-83
2022/09/16 07:29:01;;;;;;;0.50;0.50;;;;;;;14.70;75.32;97683.47;4928836;29;20212;-83
2022/09/16 07:31:32;;;;;;;0.50;0.50;;;;;;;14.65;75.28;97686.28;4928819;29;20074;-86
2022/09/16 07:34:00;;;;;;;0.50;0.50;;;;;;;14.64;75.17;97677.34;4928162;29;20138;-86
2022/09/16 07:36:39;;;;;;;0.50;0.50;;;;;;;14.83;74.83;97679.91;4929836;29;20052;-85
2022/09/16 07:39:07;;;;;;;0.50;0.50;;;;;;;14.86;74.23;97662.19;4915812;29;20427;-85
2022/09/16 07:41:36;;;;;;;0.50;0.50;;;;;;;15.03;74.06;97656.13;4929320;29;20388;-85
2022/09/16 07:44:06;;;;;;;0.50;0.50;;;;;;;15.17;73.13;97654.97;4933612;29;20051;-86
2022/09/16 07:46:34;;;;;;;0.60;0.60;;;;;;;15.30;72.45;97649.81;4935730;29;20039;-84
2022/09/16 07:49:04;;;;;;;0.50;0.50;;;;;;;15.68;71.56;97647.50;4924054;29;20115;-87
2022/09/16 07:51:32;;;;;;;0.60;0.60;;;;;;;16.02;70.62;97648.84;4927784;29;20142;-87
2022/09/16 07:54:05;;;;;;;0.60;0.60;;;;;;;16.55;68.20;97647.09;4930816;29;20059;-84
2022/09/16 07:56:36;;;;;;;0.70;0.70;;;;;;;17.18;66.50;97647.72;4928577;29;20542;-89
2022/09/16 07:59:05;;;;;;;0.70;0.70;;;;;;;17.78;63.50;97635.94;4930277;29;20051;-83
2022/09/16 08:01:33;;;;;;;0.60;0.60;;;;;;;17.99;63.48;97641.50;4929791;29;20426;-83
2022/09/16 08:04:00;;;;;;;0.60;0.60;;;;;;;17.85;62.22;97641.72;4927102;29;20488;-84
2022/09/16 08:06:29;;;;;;;0.70;0.70;;;;;;;18.10;61.00;97640.03;4926247;29;20567;-84
2022/09/16 08:08:58;;;;;;;0.60;0.60;;;;;;;18.13;60.73;97644.84;4928883;29;20058;-83
2022/09/16 08:11:45;;;;;;;0.70;0.70;;;;;;;18.06;61.07;97630.91;4927472;29;20086;-85
2022/09/16 08:14:12;;;;;;;0.63;0.63;;;;;;;18.41;59.93;97630.75;4929387;29;20075;-85
2022/09/16 08:16:39;;;;;;;0.50;0.50;;;;;;;18.42;58.81;97626.88;4930136;29;20135;-85
2022/09/16 08:19:08;;;;;;;0.40;0.40;;;;;;;17.67;60.15;97610.94;4934460;29;20408;-84
2022/09/16 08:21:39;;;;;;;0.50;0.50;;;;;;;16.88;63.60;97640.16;4931817;29;20139;-85
2022/09/16 08:24:06;;;;;;;0.50;0.50;;;;;;;16.76;63.91;97642.69;4897194;29;20086;-84
2022/09/16 08:26:33;;;;;;;0.50;0.50;;;;;;;16.42;64.82;97633.28;4930812;29;20040;-86
2022/09/16 08:29:00;;;;;;;0.50;0.50;;;;;;;16.29;66.02;97626.06;4928518;29;20098;-85
2022/09/16 08:31:36;;;;;;;0.50;0.50;;;;;;;16.25;66.38;97620.44;4933235;29;20147;-85
2022/09/16 08:34:03;;;;;;;0.50;0.50;;;;;;;16.23;66.92;97617.25;4933685;29;20055;-85
2022/09/16 08:36:32;;;;;;;0.50;0.50;;;;;;;16.29;66.94;97609.72;4932536;29;20052;-86
2022/09/16 08:38:59;;;;;;;0.40;0.40;;;;;;;16.36;67.13;97612.78;4932813;29;20134;-83
2022/09/16 08:41:38;;;;;;;0.50;0.50;;;;;;;16.38;67.00;97607.84;4933807;29;20138;-83
2022/09/16 08:44:24;;;;;;;0.50;0.50;;;;;;;16.16;67.22;97616.88;4934716;29;20048;-85
2022/09/16 08:46:52;;;;;;;0.50;0.50;;;;;;;15.99;68.38;97622.25;4933643;29;20063;-85
2022/09/16 08:49:19;;;;;;;0.40;0.40;;;;;;;16.03;67.94;97618.59;4927132;29;20048;-85
2022/09/16 08:51:46;;;;;;;0.40;0.40;;;;;;;16.03;68.04;97621.31;4914641;29;20052;-84
2022/09/16 08:54:36;;;;;;;0.50;0.50;;;;;;;16.10;68.12;97625.50;4915252;29;20134;-83
2022/09/16 08:57:04;;;;;;;0.40;0.40;;;;;;;16.13;68.29;97627.59;4913682;29;20056;-84
2022/09/16 08:59:36;;;;;;;0.40;0.40;;;;;;;16.19;68.19;97624.41;4913921;29;20464;-85
2022/09/16 09:02:06;;;;;;;0.40;0.40;;;;;;;16.21;67.46;97630.34;4914633;29;20167;-85
2022/09/16 09:04:35;;;;;;;0.40;0.40;;;;;;;16.27;67.74;97617.41;4915343;29;20090;-83
2022/09/16 09:07:41;;;;;;;0.40;0.40;;;;;;;16.44;67.11;97601.13;4915029;29;20068;-85
2022/09/16 09:10:36;;;;;;;0.50;0.50;;;;;;;16.37;67.20;97606.22;4915824;29;20048;-84
2022/09/16 09:13:29;;;;;;;0.40;0.40;;;;;;;16.37;67.39;97608.16;4914977;29;20538;-86
2022/09/16 09:16:02;;;;;;;0.50;0.50;;;;;;;16.37;66.86;97610.88;4893555;29;20048;-86
2022/09/16 09:18:36;;;;;;;0.50;0.50;;;;;;;16.49;66.90;97607.53;4915497;29;20146;-85
2022/09/16 09:21:09;;;;;;;0.40;0.40;;;;;;;16.66;65.69;97607.53;4916397;29;20052;-86
2022/09/16 09:23:50;;;;;;;0.50;0.50;;;;;;;17.04;65.09;97606.97;4913663;29;20074;-85
2022/09/16 09:26:38;;;;;;;0.50;0.50;;;;;;;17.17;63.85;97599.78;4913392;29;20446;-86
2022/09/16 09:29:15;;;;;;;0.50;0.50;;;;;;;17.03;63.72;97616.28;4913430;29;20048;-86
2022/09/16 09:31:54;;;;;;;0.40;0.40;;;;;;;16.83;63.26;97609.53;4914818;29;20060;-85
2022/09/16 09:34:32;;;;;;;0.50;0.50;;;;;;;16.96;63.14;97596.88;4914133;29;20420;-86
2022/09/16 09:37:22;;;;;;;0.50;0.50;;;;;;;17.08;62.52;97614.19;4914375;29;20063;-85
2022/09/16 09:39:54;;;;;;;0.50;0.50;;;;;;;17.29;61.58;97598.00;4914623;29;20048;-87
2022/09/16 09:42:39;;;;;;;0.50;0.50;;;;;;;17.28;62.22;97599.09;4915087;29;20080;-87
2022/09/16 09:45:06;;;;;;;0.50;0.50;;;;;;;17.09;61.98;97598.63;4914606;29;20044;-86
2022/09/16 09:47:38;;;;;;;0.40;0.40;;;;;;;16.84;62.61;97586.63;4914291;29;20643;-85
2022/09/16 09:50:16;;;;;;;0.40;0.40;;;;;;;16.65;63.54;97589.63;4918192;29;20468;-85
2022/09/16 09:53:01;;;;;;;0.40;0.40;;;;;;;16.49;64.09;97593.94;4930006;29;20119;-85
2022/09/16 09:55:32;;;;;;;0.40;0.40;;;;;;;16.34;64.50;97590.53;4916569;29;20059;-86
2022/09/16 09:58:19;;;;;;;0.40;0.40;;;;;;;16.27;64.61;97589.38;4918676;29;20063;-86
2022/09/16 10:00:46;;;;;;;0.40;0.40;;;;;;;16.14;65.32;97582.94;4917765;29;20083;-87
2022/09/16 10:03:16;;;;;;;0.40;0.40;;;;;;;16.21;65.67;97581.38;4918359;29;20198;-86
2022/09/16 10:05:45;;;;;;;0.40;0.40;;;;;;;16.27;65.70;97583.94;4921602;29;20060;-85
2022/09/16 10:08:35;;;;;;;0.40;0.40;;;;;;;16.21;65.17;97575.13;4918794;29;20169;-86
2022/09/16 10:11:15;;;;;;;0.40;0.40;;;;;;;16.15;65.00;97568.19;4900999;29;20152;-86
2022/09/16 10:13:57;;;;;;;0.40;0.40;;;;;;;16.22;65.37;97552.22;4917086;29;20072;-85
2022/09/16 10:16:52;;;;;;;0.40;0.40;;;;;;;16.51;64.82;97575.31;4917755;29;20063;-86
2022/09/16 10:19:25;;;;;;;0.40;0.40;;;;;;;16.62;63.72;97560.31;4900624;29;20146;-85
2022/09/16 10:22:12;;;;;;;0.40;0.40;;;;;;;16.62;63.31;97557.56;4915389;29;20071;-85
2022/09/16 10:24:43;;;;;;;0.40;0.40;;;;;;;16.40;63.82;97559.28;4917640;29;20056;-87
2022/09/16 10:27:22;;;;;;;0.40;0.40;;;;;;;16.21;64.50;97556.06;4916057;29;20058;-86
2022/09/16 10:30:15;;;;;;;0.40;0.40;;;;;;;16.04;65.30;97552.16;4915012;29;20140;-87
2022/09/16 10:33:00;;;;;;;0.30;0.30;;;;;;;15.92;65.93;97562.03;4913525;29;20134;-86
2022/09/16 10:35:57;;;;;;;0.38;0.38;;;;;;;15.82;66.81;97536.75;4913572;29;20115;-86
2022/09/16 10:38:33;;;;;;;0.40;0.40;;;;;;;15.81;67.10;97547.94;4909449;29;20531;-86
2022/09/16 10:41:25;;;;;;;0.40;0.40;;;;;;;15.76;66.98;97534.47;4897020;29;20048;-88
2022/09/16 10:44:02;;;;;;;0.32;0.32;;;;;;;15.72;66.69;97536.19;4913316;29;20504;-86
2022/09/16 10:46:34;;;;;;;0.40;0.40;;;;;;;15.71;66.20;97532.69;4914890;29;20135;-87
2022/09/16 10:49:09;;;;;;;0.40;0.40;;;;;;;15.69;66.63;97526.75;4582806;29;10000560;-88
2022/09/16 10:51:37;;;;;;;0.40;0.40;;;;;;;15.65;66.85;97535.81;4914089;29;20047;-86
2022/09/16 10:54:05;;;;;;;0.40;0.40;;;;;;;15.63;66.98;97532.63;4912783;29;20055;-84
2022/09/16 10:56:53;;;;;;;0.30;0.30;;;;;;;15.66;67.07;97529.28;4911637;29;20059;-84
2022/09/16 10:59:20;;;;;;;0.40;0.40;;;;;;;15.74;67.04;97525.81;4913065;29;20431;-84
2022/09/16 11:02:09;;;;;;;0.40;0.40;;;;;;;15.80;66.96;97524.56;4913447;29;20534;-85
2022/09/16 11:04:39;;;;;;;0.40;0.40;;;;;;;15.87;66.72;97524.91;4920068;29;20047;-82
2022/09/16 11:07:24;;;;;;;0.32;0.32;;;;;;;15.96;66.54;97514.84;4911677;29;20044;-85
2022/09/16 11:10:10;;;;;;;0.38;0.38;;;;;;;15.91;66.50;97511.50;4926458;29;20048;-83
2022/09/16 11:12:49;;;;;;;0.30;0.30;;;;;;;15.87;66.91;97499.63;4931619;29;20047;-84
2022/09/16 11:15:29;;;;;;;0.40;0.40;;;;;;;15.84;66.53;97506.50;4927179;29;20063;-86
2022/09/16 11:18:07;;;;;;;0.40;0.40;;;;;;;15.77;66.36;97503.41;4926313;29;20062;-89
2022/09/16 11:20:54;;;;;;;0.40;0.40;;;;;;;15.72;66.37;97498.13;4932384;29;20047;-88
2022/09/16 11:23:30;;;;;;;0.40;0.40;;;;;;;15.67;66.85;97500.97;4930550;29;20051;-83
2022/09/16 11:26:10;;;;;;;0.40;0.40;;;;;;;15.62;66.62;97496.47;4928634;29;20039;-84
2022/09/16 11:29:04;;;;;;;0.40;0.40;;;;;;;15.61;66.87;97489.44;4928710;29;20062;-85
2022/09/16 11:32:09;;;;;;;0.40;0.40;;;;;;;15.54;66.67;97478.19;4928948;29;20423;-85
2022/09/16 11:34:54;;;;;;;0.30;0.30;;;;;;;15.49;66.75;97481.06;4928834;29;20051;-84
2022/09/16 11:37:39;;;;;;;0.40;0.40;;;;;;;15.49;66.77;97486.50;4930333;29;20534;-82
2022/09/16 11:40:07;;;;;;;0.40;0.40;;;;;;;15.48;67.18;97487.63;4929962;29;20048;-86
2022/09/16 11:42:41;;;;;;;0.40;0.40;;;;;;;15.46;67.23;97481.69;4930827;29;20503;-85
2022/09/16 11:45:23;;;;;;;0.30;0.30;;;;;;;15.45;68.93;97475.47;4928845;29;20047;-85
2022/09/16 11:48:11;;;;;;;0.40;0.40;;;;;;;15.44;68.34;97468.41;4917793;29;20047;-82
2022/09/16 11:50:51;;;;;;;0.40;0.40;;;;;;;15.48;68.30;97465.88;4944121;29;20517;-84
2022/09/16 11:53:40;;;;;;;0.40;0.40;;;;;;;15.49;67.40;97464.75;4934844;29;20078;-84
2022/09/16 11:56:23;;;;;;;0.40;0.40;;;;;;;15.46;67.40;97463.44;4930648;29;20098;-84
2022/09/16 11:58:58;;;;;;;0.40;0.40;;;;;;;15.32;68.32;97455.41;4935226;29;20056;-85
2022/09/16 12:01:33;;;;;;;0.32;0.32;;;;;;;15.23;68.36;97457.28;4934111;29;20043;-86
2022/09/16 12:04:05;;;;;;;0.40;0.40;;;;;;;15.14;69.42;97459.13;4931807;29;20456;-85
2022/09/16 12:07:03;;;;;;;0.40;0.40;;;;;;;15.06;69.84;97457.19;4930867;29;20055;-86